createdAt,value
2018-03-06T00:00:07.185Z,99.90
2018-03-06T00:02:34.654Z,99.90
2018-03-06T00:05:02.128Z,99.90
2018-03-06T00:07:29.721Z,99.90
2018-03-06T00:09:57.248Z,99.90
2018-03-06T00:12:24.725Z,99.90
2018-03-06T00:14:52.187Z,99.90
2018-03-06T00:17:19.650Z,99.90
2018-03-06T00:19:47.118Z,99.90
2018-03-06T00:22:14.598Z,99.90
2018-03-06T00:24:42.836Z,99.90
2018-03-06T00:27:10.305Z,99.90
2018-03-06T00:29:37.781Z,99.90
2018-03-06T00:32:06.010Z,99.90
2018-03-06T00:34:33.496Z,99.90
2018-03-06T00:37:02.341Z,99.90
2018-03-06T00:39:29.803Z,99.90
2018-03-06T00:41:57.385Z,99.90
2018-03-06T00:46:59.677Z,99.90
2018-03-06T00:49:28.655Z,99.90
2018-03-06T00:51:56.133Z,99.90
2018-03-06T00:54:23.602Z,99.90
2018-03-06T00:56:51.082Z,99.90
2018-03-06T00:59:18.553Z,99.90
2018-03-06T01:01:46.028Z,99.90
2018-03-06T01:04:13.491Z,99.90
2018-03-06T01:06:40.952Z,99.90
2018-03-06T01:09:08.422Z,99.90
2018-03-06T01:11:35.912Z,99.90
2018-03-06T01:14:04.138Z,99.90
2018-03-06T01:16:31.600Z,99.90
2018-03-06T01:18:59.068Z,99.90
2018-03-06T01:21:26.592Z,99.90
2018-03-06T01:23:54.154Z,99.90
2018-03-06T01:26:21.717Z,99.90
2018-03-06T01:28:49.217Z,99.90
2018-03-06T01:31:16.690Z,99.90
2018-03-06T01:33:44.938Z,99.90
2018-03-06T01:36:12.402Z,99.90
2018-03-06T01:38:39.872Z,99.90
2018-03-06T01:41:08.299Z,99.90
2018-03-06T01:43:36.030Z,99.90
2018-03-06T01:46:04.231Z,99.90
2018-03-06T01:48:32.410Z,99.90
2018-03-06T01:50:59.879Z,99.90
2018-03-06T01:53:27.515Z,99.90
2018-03-06T01:55:54.979Z,99.90
2018-03-06T01:58:22.452Z,99.90
2018-03-06T02:00:50.262Z,99.90
2018-03-06T02:03:18.510Z,99.90
2018-03-06T02:05:45.987Z,99.90
2018-03-06T02:08:13.452Z,99.90
2018-03-06T02:10:41.713Z,99.90
2018-03-06T02:13:09.176Z,99.90
2018-03-06T02:15:36.653Z,99.90
2018-03-06T02:18:04.604Z,99.90
2018-03-06T02:20:32.077Z,99.90
2018-03-06T02:23:00.317Z,99.90
2018-03-06T02:25:27.793Z,99.90
2018-03-06T02:27:56.038Z,99.90
2018-03-06T02:30:23.520Z,99.90
2018-03-06T02:32:51.764Z,99.90
2018-03-06T02:35:19.228Z,99.90
2018-03-06T02:37:46.813Z,99.90
2018-03-06T02:40:14.352Z,99.90
2018-03-06T02:42:41.838Z,99.90
2018-03-06T02:45:10.594Z,99.90
2018-03-06T02:47:38.085Z,99.90
2018-03-06T02:50:06.317Z,99.90
2018-03-06T02:52:33.794Z,99.90
2018-03-06T02:55:01.261Z,99.90
2018-03-06T02:57:29.506Z,99.90
2018-03-06T02:59:57.025Z,99.90
2018-03-06T03:02:24.620Z,99.90
2018-03-06T03:04:52.226Z,99.90
2018-03-06T03:07:20.473Z,99.90
2018-03-06T03:09:47.947Z,99.90
2018-03-06T03:12:15.426Z,99.90
2018-03-06T03:14:42.909Z,99.90
2018-03-06T03:17:10.447Z,99.90
2018-03-06T03:19:38.753Z,99.90
2018-03-06T03:22:06.273Z,99.90
2018-03-06T03:24:34.596Z,99.90
2018-03-06T03:27:02.052Z,99.90
2018-03-06T03:29:29.613Z,99.90
2018-03-06T03:31:57.082Z,99.90
2018-03-06T03:34:24.564Z,99.90
2018-03-06T03:36:52.049Z,99.90
2018-03-06T03:39:19.528Z,99.90
2018-03-06T03:41:46.997Z,99.90
2018-03-06T03:44:14.526Z,99.90
2018-03-06T03:46:42.003Z,99.90
2018-03-06T03:49:09.501Z,99.90
2018-03-06T03:51:37.773Z,99.90
2018-03-06T03:54:05.216Z,99.90
2018-03-06T03:56:32.701Z,99.90
2018-03-06T03:59:01.070Z,99.90
2018-03-06T04:01:28.612Z,99.90
2018-03-06T04:03:56.091Z,99.90
2018-03-06T04:06:24.317Z,99.90
2018-03-06T04:08:51.799Z,99.90
2018-03-06T04:11:19.258Z,99.90
2018-03-06T04:13:46.733Z,99.90
2018-03-06T04:16:14.262Z,99.90
2018-03-06T04:18:41.960Z,99.90
2018-03-06T04:21:10.200Z,99.90
2018-03-06T04:23:37.683Z,99.90
2018-03-06T04:26:05.169Z,99.90
2018-03-06T04:28:33.419Z,99.90
2018-03-06T04:31:00.895Z,99.90
2018-03-06T04:33:29.134Z,99.90
2018-03-06T04:35:56.676Z,99.90
2018-03-06T04:38:24.222Z,99.90
2018-03-06T04:40:51.700Z,99.90
2018-03-06T04:43:19.177Z,99.90
2018-03-06T04:45:46.658Z,99.90
2018-03-06T04:48:14.895Z,99.90
2018-03-06T04:50:42.374Z,99.90
2018-03-06T04:53:09.829Z,99.90
2018-03-06T04:55:37.305Z,99.90
2018-03-06T04:58:05.530Z,99.90
2018-03-06T05:00:33.000Z,99.90
2018-03-06T05:03:00.512Z,99.90
2018-03-06T05:05:28.034Z,99.90
2018-03-06T05:07:55.690Z,99.90
2018-03-06T05:10:23.174Z,99.90
2018-03-06T05:12:51.423Z,99.90
2018-03-06T05:15:18.889Z,99.90
2018-03-06T05:17:46.360Z,99.90
2018-03-06T05:20:14.694Z,99.90
2018-03-06T05:22:42.171Z,99.90
2018-03-06T05:25:09.833Z,99.90
2018-03-06T05:27:37.350Z,99.90
2018-03-06T05:30:05.019Z,99.90
2018-03-06T05:32:32.485Z,99.90
2018-03-06T05:34:59.968Z,99.90
2018-03-06T05:37:27.444Z,99.90
2018-03-06T05:39:55.696Z,99.90
2018-03-06T05:42:23.188Z,99.90
2018-03-06T05:44:51.465Z,99.90
2018-03-06T05:47:19.136Z,99.90
2018-03-06T05:49:46.639Z,99.90
2018-03-06T05:52:14.109Z,99.90
2018-03-06T05:54:43.141Z,99.90
2018-03-06T05:57:10.602Z,99.90
2018-03-06T05:59:38.081Z,99.90
2018-03-06T06:02:05.936Z,99.90
2018-03-06T06:04:33.430Z,99.90
2018-03-06T06:07:00.919Z,99.90
2018-03-06T06:09:29.143Z,99.90
2018-03-06T06:11:56.627Z,99.90
2018-03-06T06:14:24.182Z,99.90
2018-03-06T06:16:52.258Z,99.90
2018-03-06T06:19:19.777Z,99.90
2018-03-06T06:21:47.978Z,99.90
2018-03-06T06:24:15.457Z,99.90
2018-03-06T06:26:42.965Z,99.90
2018-03-06T06:29:10.421Z,99.90
2018-03-06T06:31:37.905Z,99.90
2018-03-06T06:34:05.375Z,99.90
2018-03-06T06:36:32.848Z,99.90
2018-03-06T06:39:01.085Z,99.90
2018-03-06T06:41:28.563Z,99.90
2018-03-06T06:43:56.021Z,99.90
2018-03-06T06:46:23.498Z,99.90
2018-03-06T06:48:51.830Z,99.90
2018-03-06T06:51:19.310Z,99.90
2018-03-06T06:53:46.792Z,99.90
2018-03-06T06:56:15.026Z,99.90
2018-03-06T06:58:42.566Z,99.90
2018-03-06T07:01:10.049Z,99.90
2018-03-06T07:03:37.520Z,99.90
2018-03-06T07:06:05.005Z,99.90
2018-03-06T07:08:33.246Z,99.90
2018-03-06T07:11:00.725Z,99.90
2018-03-06T07:13:28.982Z,99.90
2018-03-06T07:15:56.462Z,99.90
2018-03-06T07:18:24.876Z,99.90
2018-03-06T07:20:52.341Z,99.90
2018-03-06T07:23:20.035Z,99.90
2018-03-06T07:25:47.558Z,99.90
2018-03-06T07:28:15.251Z,99.90
2018-03-06T07:30:42.737Z,99.90
2018-03-06T07:33:10.971Z,99.90
2018-03-06T07:35:38.452Z,99.90
2018-03-06T07:38:05.972Z,99.90
2018-03-06T07:40:34.170Z,99.90
2018-03-06T07:43:01.783Z,99.90
2018-03-06T07:45:29.263Z,99.90
2018-03-06T07:47:56.865Z,99.90
2018-03-06T07:50:24.337Z,99.90
2018-03-06T07:52:52.582Z,99.90
2018-03-06T07:55:20.047Z,99.90
2018-03-06T07:57:47.529Z,99.90
2018-03-06T08:00:15.858Z,99.90
2018-03-06T08:02:43.368Z,99.90
2018-03-06T08:05:12.459Z,99.90
2018-03-06T08:07:40.692Z,99.90
2018-03-06T08:10:08.172Z,99.90
2018-03-06T08:12:35.738Z,99.90
2018-03-06T08:15:03.953Z,99.90
2018-03-06T08:17:31.553Z,99.90
2018-03-06T08:19:59.641Z,99.90
2018-03-06T08:22:27.111Z,99.90
2018-03-06T08:24:55.356Z,99.90
2018-03-06T08:27:22.829Z,99.90
2018-03-06T08:29:50.305Z,99.90
2018-03-06T08:32:18.657Z,99.90
2018-03-06T08:34:46.132Z,99.90
2018-03-06T08:37:14.399Z,99.90
2018-03-06T08:39:41.885Z,99.90
2018-03-06T08:42:09.364Z,99.90
2018-03-06T08:44:36.859Z,99.90
2018-03-06T08:47:04.336Z,99.90
2018-03-06T08:49:32.593Z,99.90
2018-03-06T08:52:00.145Z,99.90
2018-03-06T08:54:28.203Z,99.90
2018-03-06T08:56:55.782Z,99.90
2018-03-06T08:59:23.260Z,99.90
2018-03-06T09:01:51.499Z,99.90
2018-03-06T09:04:18.980Z,99.90
2018-03-06T09:06:46.440Z,99.80
2018-03-06T09:09:13.914Z,99.70
2018-03-06T09:11:42.233Z,99.70
2018-03-06T09:14:09.725Z,99.70
2018-03-06T09:16:37.199Z,99.50
2018-03-06T09:19:05.432Z,99.90
2018-03-06T09:21:32.913Z,99.90
2018-03-06T09:24:01.156Z,99.90
2018-03-06T09:26:28.625Z,99.90
2018-03-06T09:28:56.467Z,99.90
2018-03-06T09:31:23.948Z,99.90
2018-03-06T09:33:51.437Z,99.90
2018-03-06T09:36:18.906Z,99.90
2018-03-06T09:38:47.277Z,99.90
2018-03-06T09:41:15.517Z,99.90
2018-03-06T09:43:43.340Z,99.90
2018-03-06T09:46:11.028Z,99.90
2018-03-06T09:48:39.525Z,99.90
2018-03-06T09:51:07.010Z,99.90
2018-03-06T09:53:34.633Z,99.70
2018-03-06T09:56:02.301Z,99.60
2018-03-06T09:58:29.829Z,98.90
2018-03-06T10:00:57.324Z,98.10
2018-03-06T10:03:24.797Z,97.60
2018-03-06T10:05:54.040Z,97.70
2018-03-06T10:08:21.622Z,97.80
2018-03-06T10:10:49.105Z,97.90
2018-03-06T10:13:16.573Z,97.80
2018-03-06T10:15:44.042Z,97.40
2018-03-06T10:18:12.276Z,96.70
2018-03-06T10:20:39.818Z,96.60
2018-03-06T10:23:07.296Z,95.70
2018-03-06T10:25:34.841Z,95.50
2018-03-06T10:28:02.323Z,95.00
2018-03-06T10:30:29.787Z,94.60
2018-03-06T10:32:57.314Z,94.40
2018-03-06T10:35:24.931Z,94.70
2018-03-06T10:37:53.393Z,94.10
2018-03-06T10:40:20.864Z,94.10
2018-03-06T10:42:49.109Z,94.00
2018-03-06T10:45:16.572Z,93.90
2018-03-06T10:47:44.054Z,94.20
2018-03-06T10:50:12.294Z,94.60
2018-03-06T10:52:39.762Z,94.60
2018-03-06T10:55:07.429Z,94.00
2018-03-06T10:57:34.954Z,94.30
2018-03-06T11:00:02.569Z,94.20
2018-03-06T11:02:31.585Z,95.00
2018-03-06T11:04:59.068Z,95.00
2018-03-06T11:07:26.534Z,95.10
2018-03-06T11:09:54.019Z,95.00
2018-03-06T11:12:21.557Z,95.30
2018-03-06T11:14:49.048Z,95.50
2018-03-06T11:17:17.292Z,95.10
2018-03-06T11:19:44.776Z,95.10
2018-03-06T11:22:13.009Z,95.60
2018-03-06T11:24:40.498Z,95.60
2018-03-06T11:27:08.741Z,96.20
2018-03-06T11:29:36.217Z,96.20
2018-03-06T11:32:05.209Z,96.20
2018-03-06T11:34:32.782Z,96.10
2018-03-06T11:37:00.294Z,96.30
2018-03-06T11:39:27.982Z,96.30
2018-03-06T11:41:55.499Z,96.50
2018-03-06T11:44:23.954Z,96.20
2018-03-06T11:46:52.206Z,95.70
2018-03-06T11:49:19.702Z,95.70
2018-03-06T11:51:47.190Z,96.20
2018-03-06T11:54:14.661Z,95.10
2018-03-06T11:56:42.164Z,95.30
2018-03-06T11:59:10.475Z,95.30
2018-03-06T12:01:38.668Z,95.00
2018-03-06T12:04:06.138Z,95.00
2018-03-06T12:06:33.608Z,95.00
2018-03-06T12:09:01.091Z,94.80
2018-03-06T12:11:29.321Z,94.00
2018-03-06T12:13:56.802Z,94.00
2018-03-06T12:16:24.408Z,93.90
2018-03-06T12:18:51.984Z,93.90
2018-03-06T12:21:19.454Z,94.50
2018-03-06T12:23:46.977Z,94.50
2018-03-06T12:26:14.439Z,94.40
2018-03-06T12:28:41.921Z,94.20
2018-03-06T12:31:09.397Z,94.20
2018-03-06T12:33:36.861Z,94.00
2018-03-06T12:36:04.344Z,94.20
2018-03-06T12:38:31.862Z,94.10
2018-03-06T12:40:59.487Z,93.90
2018-03-06T12:43:26.995Z,93.60
2018-03-06T12:45:55.325Z,93.90
2018-03-06T12:48:22.789Z,93.90
2018-03-06T12:50:50.287Z,93.50
2018-03-06T12:53:19.273Z,93.50
2018-03-06T12:55:46.761Z,93.50
2018-03-06T12:58:15.001Z,94.50
2018-03-06T13:00:43.353Z,94.50
2018-03-06T13:03:10.909Z,94.50
2018-03-06T13:05:38.393Z,94.40
2018-03-06T13:08:05.888Z,95.00
2018-03-06T13:10:34.124Z,94.10
2018-03-06T13:13:01.599Z,94.10
2018-03-06T13:15:29.081Z,93.90
2018-03-06T13:17:56.661Z,94.00
2018-03-06T13:20:24.126Z,94.70
2018-03-06T13:22:51.600Z,94.30
2018-03-06T13:25:19.298Z,94.30
2018-03-06T13:27:46.775Z,94.40
2018-03-06T13:30:14.273Z,94.70
2018-03-06T13:32:41.768Z,95.00
2018-03-06T13:35:09.997Z,94.10
2018-03-06T13:37:37.482Z,94.10
2018-03-06T13:40:04.950Z,93.80
2018-03-06T13:42:32.426Z,93.60
2018-03-06T13:45:00.654Z,93.80
2018-03-06T13:47:28.270Z,93.80
2018-03-06T13:49:55.734Z,93.80
2018-03-06T13:52:23.244Z,93.60
2018-03-06T13:54:51.646Z,93.00
2018-03-06T13:57:19.997Z,92.80
2018-03-06T13:59:47.549Z,92.80
2018-03-06T14:02:15.082Z,92.40
2018-03-06T14:04:42.569Z,92.00
2018-03-06T14:07:10.054Z,92.30
2018-03-06T14:09:38.292Z,93.00
2018-03-06T14:12:05.773Z,93.00
2018-03-06T14:14:33.259Z,93.30
2018-03-06T14:17:00.736Z,93.90
2018-03-06T14:19:28.216Z,93.60
2018-03-06T14:21:55.684Z,93.00
2018-03-06T14:24:23.170Z,92.80
2018-03-06T14:26:50.640Z,93.30
2018-03-06T14:29:18.885Z,93.40
2018-03-06T14:31:47.148Z,93.20
2018-03-06T14:34:14.697Z,93.20
2018-03-06T14:36:42.194Z,93.10
2018-03-06T14:39:09.661Z,93.40
2018-03-06T14:41:37.893Z,93.80
2018-03-06T14:44:05.479Z,93.80
2018-03-06T14:46:32.946Z,93.80
2018-03-06T14:49:01.464Z,94.40
2018-03-06T14:51:28.956Z,94.40
2018-03-06T14:53:56.433Z,94.50
2018-03-06T14:56:24.072Z,94.40
2018-03-06T14:58:51.538Z,94.80
2018-03-06T15:01:19.023Z,95.40
2018-03-06T15:03:47.267Z,95.60
2018-03-06T15:06:14.816Z,95.50
2018-03-06T15:08:42.302Z,95.40
2018-03-06T15:11:10.546Z,95.60
2018-03-06T15:13:38.020Z,95.50
2018-03-06T15:16:05.593Z,95.70
2018-03-06T15:18:33.100Z,95.80
2018-03-06T15:21:00.594Z,96.00
2018-03-06T15:23:28.233Z,96.30
2018-03-06T15:25:55.722Z,96.80
2018-03-06T15:28:23.985Z,97.10
2018-03-06T15:30:51.488Z,97.10
2018-03-06T15:33:18.999Z,97.10
2018-03-06T15:35:46.581Z,97.00
2018-03-06T15:38:14.831Z,97.50
2018-03-06T15:40:43.008Z,97.50
2018-03-06T15:43:10.485Z,97.80
2018-03-06T15:45:37.983Z,97.90
2018-03-06T15:48:05.714Z,97.50
2018-03-06T15:50:33.942Z,97.70
2018-03-06T15:53:01.437Z,97.70
2018-03-06T15:55:28.902Z,97.90
2018-03-06T15:57:57.161Z,98.00
2018-03-06T16:00:26.149Z,97.70
2018-03-06T16:02:53.717Z,97.70
2018-03-06T16:05:22.691Z,98.10
2018-03-06T16:07:50.173Z,98.10
2018-03-06T16:10:18.435Z,98.50
2018-03-06T16:12:45.917Z,98.10
2018-03-06T16:15:14.189Z,98.40
2018-03-06T16:17:42.459Z,98.40
2018-03-06T16:20:09.918Z,98.40
2018-03-06T16:22:38.169Z,98.30
2018-03-06T16:25:05.735Z,98.30
2018-03-06T16:27:33.264Z,98.40
2018-03-06T16:30:01.454Z,98.20
2018-03-06T16:32:28.989Z,98.40
2018-03-06T16:34:56.519Z,98.40
2018-03-06T16:37:24.754Z,98.80
2018-03-06T16:39:52.313Z,98.80
2018-03-06T16:42:19.806Z,98.70
2018-03-06T16:44:48.057Z,98.90
2018-03-06T16:47:16.297Z,99.00
2018-03-06T16:49:43.897Z,99.00
2018-03-06T16:52:12.877Z,99.00
2018-03-06T16:54:41.857Z,99.10
2018-03-06T16:57:09.416Z,99.10
2018-03-06T16:59:36.904Z,99.20
2018-03-06T17:02:05.149Z,99.60
2018-03-06T17:04:32.654Z,99.20
2018-03-06T17:07:00.138Z,99.20
2018-03-06T17:09:27.740Z,99.00
2018-03-06T17:11:55.272Z,99.10
2018-03-06T17:14:22.802Z,99.30
2018-03-06T17:16:50.335Z,99.40
2018-03-06T17:19:18.585Z,99.70
2018-03-06T17:21:46.049Z,99.60
2018-03-06T17:24:15.066Z,99.50
2018-03-06T17:26:43.296Z,99.70
2018-03-06T17:29:10.993Z,99.70
2018-03-06T17:31:39.288Z,99.90
2018-03-06T17:34:06.785Z,99.90
2018-03-06T17:36:34.445Z,99.90
2018-03-06T17:39:01.967Z,99.90
2018-03-06T17:41:29.463Z,99.90
2018-03-06T17:43:56.950Z,99.90
2018-03-06T17:46:24.418Z,99.90
2018-03-06T17:48:52.676Z,99.90
2018-03-06T17:51:20.137Z,99.90
2018-03-06T17:53:48.397Z,99.90
2018-03-06T17:56:15.877Z,99.90
2018-03-06T17:58:44.133Z,99.90
2018-03-06T18:01:11.631Z,99.90
2018-03-06T18:03:39.860Z,99.90
2018-03-06T18:06:07.363Z,99.90
2018-03-06T18:08:35.717Z,99.90
2018-03-06T18:11:04.866Z,99.90
2018-03-06T18:13:32.444Z,99.90
2018-03-06T18:15:59.941Z,99.90
2018-03-06T18:18:28.203Z,99.90
2018-03-06T18:20:56.573Z,99.90
2018-03-06T18:23:24.157Z,99.90
2018-03-06T18:25:52.412Z,99.90
2018-03-06T18:28:19.930Z,99.90
2018-03-06T18:30:47.419Z,99.90
2018-03-06T18:33:14.917Z,99.90
2018-03-06T18:35:43.157Z,99.90
2018-03-06T18:38:10.655Z,99.90
2018-03-06T18:40:38.629Z,99.90
2018-03-06T18:43:06.098Z,99.90
2018-03-06T18:45:33.598Z,99.90
2018-03-06T18:48:01.089Z,99.90
2018-03-06T18:50:41.467Z,99.90
2018-03-06T18:53:08.889Z,99.90
2018-03-06T18:55:36.439Z,99.90
2018-03-06T18:58:04.715Z,99.90
2018-03-06T19:00:58.858Z,99.90
2018-03-06T19:03:38.261Z,99.90
2018-03-06T19:06:18.345Z,99.90
2018-03-06T19:08:45.847Z,99.90
2018-03-06T19:11:13.332Z,99.90
2018-03-06T19:13:41.040Z,99.90
2018-03-06T19:16:08.590Z,99.90
2018-03-06T19:18:36.076Z,99.90
2018-03-06T19:21:03.559Z,99.90
2018-03-06T19:23:31.867Z,99.90
2018-03-06T19:25:59.345Z,99.90
2018-03-06T19:28:26.836Z,99.90
2018-03-06T19:30:54.410Z,99.90
2018-03-06T19:33:22.654Z,99.90
2018-03-06T19:35:50.128Z,99.90
2018-03-06T19:38:18.381Z,99.90
2018-03-06T19:40:45.873Z,99.90
2018-03-06T19:43:14.230Z,99.90
2018-03-06T19:45:41.757Z,99.90
2018-03-06T19:48:09.269Z,99.90
2018-03-06T19:50:38.733Z,99.90
2018-03-06T19:53:06.230Z,99.90
2018-03-06T19:55:33.727Z,99.90
2018-03-06T20:00:35.334Z,99.90
2018-03-06T20:03:02.841Z,99.90
2018-03-06T20:05:30.500Z,99.90
2018-03-06T20:07:58.231Z,99.90
2018-03-06T20:10:26.555Z,99.90
2018-03-06T20:12:54.046Z,99.90
2018-03-06T20:15:21.518Z,99.90
2018-03-06T20:17:49.005Z,99.90
2018-03-06T20:20:16.525Z,99.90
2018-03-06T20:22:44.017Z,99.90
2018-03-06T20:25:17.197Z,99.90
2018-03-06T20:27:44.768Z,99.90
2018-03-06T20:30:12.877Z,99.90
2018-03-06T20:32:46.079Z,99.90
2018-03-06T20:35:13.559Z,99.90
2018-03-06T20:37:41.809Z,99.90
2018-03-06T20:40:14.942Z,99.90
2018-03-06T20:42:43.209Z,99.90
2018-03-06T20:45:11.527Z,99.90
2018-03-06T20:47:39.029Z,99.90
2018-03-06T20:50:08.018Z,99.90
2018-03-06T20:52:41.266Z,99.90
2018-03-06T20:55:13.401Z,99.90
2018-03-06T20:57:41.645Z,99.90
2018-03-06T21:00:09.138Z,99.90
2018-03-06T21:02:36.624Z,99.90
2018-03-06T21:05:04.114Z,99.90
2018-03-06T21:07:31.592Z,99.90
2018-03-06T21:09:59.824Z,99.90
2018-03-06T21:12:27.425Z,99.90
2018-03-06T21:14:55.676Z,99.90
2018-03-06T21:17:23.611Z,99.90
2018-03-06T21:19:51.094Z,99.90
2018-03-06T21:22:18.746Z,99.90
2018-03-06T21:24:46.226Z,99.90
2018-03-06T21:27:13.693Z,99.90
2018-03-06T21:29:41.936Z,99.90
2018-03-06T21:32:09.505Z,99.90
2018-03-06T21:34:37.004Z,99.90
2018-03-06T21:37:05.244Z,99.90
2018-03-06T21:39:32.727Z,99.90
2018-03-06T21:42:00.985Z,99.90
2018-03-06T21:44:28.462Z,99.90
2018-03-06T21:46:55.944Z,99.90
2018-03-06T21:49:23.429Z,99.90
2018-03-06T21:51:50.925Z,99.90
2018-03-06T21:54:19.165Z,99.90
2018-03-06T21:56:46.681Z,99.90
2018-03-06T21:59:14.126Z,99.90
2018-03-06T22:01:42.381Z,99.90
2018-03-06T22:04:09.871Z,99.90
2018-03-06T22:06:38.153Z,99.90
2018-03-06T22:09:05.632Z,99.90
2018-03-06T22:11:33.119Z,99.90
2018-03-06T22:14:00.601Z,99.90
2018-03-06T22:16:29.742Z,99.90
2018-03-06T22:18:57.229Z,99.90
2018-03-06T22:21:24.700Z,99.90
2018-03-06T22:23:52.209Z,99.90
2018-03-06T22:26:19.752Z,99.90
2018-03-06T22:28:47.479Z,99.90
2018-03-06T22:31:14.965Z,99.90
2018-03-06T22:33:42.472Z,99.90
2018-03-06T22:36:10.066Z,99.90
2018-03-06T22:38:38.323Z,99.90
2018-03-06T22:41:05.822Z,99.90
2018-03-06T22:43:34.358Z,99.90
2018-03-06T22:46:01.890Z,99.90
2018-03-06T22:48:29.424Z,99.90
2018-03-06T22:50:57.114Z,99.90
2018-03-06T22:53:24.678Z,99.90
2018-03-06T22:55:53.641Z,99.90
2018-03-06T22:58:21.170Z,99.90
2018-03-06T23:00:49.410Z,99.90
2018-03-06T23:03:16.958Z,99.90
2018-03-06T23:05:44.473Z,99.90
2018-03-06T23:08:12.728Z,99.90
2018-03-06T23:10:40.200Z,99.90
2018-03-06T23:13:08.465Z,99.90
2018-03-06T23:15:36.040Z,99.90
2018-03-06T23:18:04.264Z,99.90
2018-03-06T23:20:32.705Z,99.90
2018-03-06T23:23:00.242Z,99.90
2018-03-06T23:25:28.481Z,99.90
2018-03-06T23:27:55.945Z,99.90
2018-03-06T23:30:23.436Z,99.90
2018-03-06T23:32:51.673Z,99.90
2018-03-06T23:35:19.158Z,99.90
2018-03-06T23:37:47.412Z,99.90
2018-03-06T23:40:14.906Z,99.90
2018-03-06T23:42:43.133Z,99.90
2018-03-06T23:45:10.628Z,99.90
2018-03-06T23:47:38.876Z,99.90
2018-03-06T23:50:06.351Z,99.90
2018-03-06T23:52:34.106Z,99.90
2018-03-06T23:55:01.582Z,99.90
2018-03-06T23:57:29.973Z,99.90
2018-03-06T23:59:59.059Z,99.90
